sensor_id;sensor_type;location;lat;lon;timestamp;pressure;altitude;pressure_sealevel;temperature;humidity
12775;BME280;6451;42.630;23.382;2023-05-16T00:01:09;94042.88;;;18.81;100.00
12775;BME280;6451;42.630;23.382;2023-05-16T00:03:37;94090.13;;;19.14;100.00
12775;BME280;6451;42.630;23.382;2023-05-16T00:06:05;94080.03;;;19.00;100.00
12775;BME280;6451;42.630;23.382;2023-05-16T00:08:32;94082.44;;;18.95;100.00
12775;BME280;6451;42.630;23.382;2023-05-16T00:10:59;94097.09;;;18.77;100.00
12775;BME280;6451;42.630;23.382;2023-05-16T00:13:28;94085.56;;;18.93;100.00
12775;BME280;6451;42.630;23.382;2023-05-16T00:15:55;94069.72;;;18.59;100.00
12775;BME280;6451;42.630;23.382;2023-05-16T00:18:23;94077.06;;;18.77;100.00
12775;BME280;6451;42.630;23.382;2023-05-16T00:20:52;94057.56;;;18.57;100.00
12775;BME280;6451;42.630;23.382;2023-05-16T00:23:21;94078.69;;;18.71;100.00
12775;BME280;6451;42.630;23.382;2023-05-16T00:25:48;94077.69;;;18.43;100.00
12775;BME280;6451;42.630;23.382;2023-05-16T00:28:15;94077.31;;;18.38;100.00
12775;BME280;6451;42.630;23.382;2023-05-16T00:30:42;94053.75;;;18.40;100.00
12775;BME280;6451;42.630;23.382;2023-05-16T00:33:09;94025.53;;;18.32;100.00
12775;BME280;6451;42.630;23.382;2023-05-16T00:35:37;94073.22;;;18.67;100.00
12775;BME280;6451;42.630;23.382;2023-05-16T00:38:04;94080.34;;;18.54;100.00
12775;BME280;6451;42.630;23.382;2023-05-16T00:40:33;94071.69;;;18.55;100.00
12775;BME280;6451;42.630;23.382;2023-05-16T00:43:00;94048.00;;;18.20;100.00
12775;BME280;6451;42.630;23.382;2023-05-16T00:45:28;94040.00;;;18.44;100.00
12775;BME280;6451;42.630;23.382;2023-05-16T00:47:56;94063.91;;;18.47;100.00
12775;BME280;6451;42.630;23.382;2023-05-16T00:50:22;94060.69;;;18.55;100.00
12775;BME280;6451;42.630;23.382;2023-05-16T00:52:49;94029.81;;;18.41;100.00
12775;BME280;6451;42.630;23.382;2023-05-16T00:55:16;94054.38;;;18.62;100.00
12775;BME280;6451;42.630;23.382;2023-05-16T00:57:45;94021.63;;;18.85;100.00
12775;BME280;6451;42.630;23.382;2023-05-16T01:00:13;93964.47;;;18.18;100.00
12775;BME280;6451;42.630;23.382;2023-05-16T01:02:41;94046.09;;;18.69;100.00
12775;BME280;6451;42.630;23.382;2023-05-16T01:05:08;94034.81;;;18.53;100.00
12775;BME280;6451;42.630;23.382;2023-05-16T01:07:35;94049.09;;;18.33;100.00
12775;BME280;6451;42.630;23.382;2023-05-16T01:10:02;94027.81;;;18.45;100.00
12775;BME280;6451;42.630;23.382;2023-05-16T01:12:36;94039.63;;;18.38;100.00
12775;BME280;6451;42.630;23.382;2023-05-16T01:15:08;93911.00;;;17.77;100.00
12775;BME280;6451;42.630;23.382;2023-05-16T01:17:43;94042.59;;;18.65;100.00
12775;BME280;6451;42.630;23.382;2023-05-16T01:20:16;94021.06;;;19.01;100.00
12775;BME280;6451;42.630;23.382;2023-05-16T01:22:57;94032.66;;;18.82;100.00
12775;BME280;6451;42.630;23.382;2023-05-16T01:25:35;94029.53;;;18.80;100.00
12775;BME280;6451;42.630;23.382;2023-05-16T01:28:06;94038.66;;;18.62;100.00
12775;BME280;6451;42.630;23.382;2023-05-16T01:30:36;94036.28;;;18.72;100.00
12775;BME280;6451;42.630;23.382;2023-05-16T01:33:03;94023.75;;;18.67;100.00
12775;BME280;6451;42.630;23.382;2023-05-16T01:35:30;93983.50;;;18.39;100.00
12775;BME280;6451;42.630;23.382;2023-05-16T01:38:03;94022.94;;;18.70;100.00
12775;BME280;6451;42.630;23.382;2023-05-16T01:40:43;93878.50;;;17.69;100.00
12775;BME280;6451;42.630;23.382;2023-05-16T01:43:16;93969.88;;;18.28;100.00
12775;BME280;6451;42.630;23.382;2023-05-16T01:45:50;93996.16;;;18.29;100.00
12775;BME280;6451;42.630;23.382;2023-05-16T01:48:22;94010.50;;;18.51;100.00
12775;BME280;6451;42.630;23.382;2023-05-16T01:50:55;93996.97;;;18.23;100.00
12775;BME280;6451;42.630;23.382;2023-05-16T01:53:26;93999.50;;;18.51;100.00
12775;BME280;6451;42.630;23.382;2023-05-16T01:55:56;93982.09;;;18.20;100.00
12775;BME280;6451;42.630;23.382;2023-05-16T01:58:29;93990.66;;;18.29;100.00
12775;BME280;6451;42.630;23.382;2023-05-16T02:00:59;93995.16;;;18.54;100.00
12775;BME280;6451;42.630;23.382;2023-05-16T02:03:27;93958.81;;;18.36;100.00
12775;BME280;6451;42.630;23.382;2023-05-16T02:05:53;93985.06;;;18.40;100.00
12775;BME280;6451;42.630;23.382;2023-05-16T02:08:20;93992.19;;;18.34;100.00
12775;BME280;6451;42.630;23.382;2023-05-16T02:10:48;93976.13;;;18.29;100.00
12775;BME280;6451;42.630;23.382;2023-05-16T02:13:15;93924.38;;;17.72;100.00
12775;BME280;6451;42.630;23.382;2023-05-16T02:15:44;93981.03;;;18.03;100.00
12775;BME280;6451;42.630;23.382;2023-05-16T02:18:11;93999.31;;;18.24;100.00
12775;BME280;6451;42.630;23.382;2023-05-16T02:20:38;93964.06;;;18.19;100.00
12775;BME280;6451;42.630;23.382;2023-05-16T02:23:05;93969.81;;;18.36;100.00
12775;BME280;6451;42.630;23.382;2023-05-16T02:25:33;93975.06;;;18.68;100.00
12775;BME280;6451;42.630;23.382;2023-05-16T02:28:00;93932.06;;;17.95;100.00
12775;BME280;6451;42.630;23.382;2023-05-16T02:30:27;93966.50;;;18.06;100.00
12775;BME280;6451;42.630;23.382;2023-05-16T02:32:55;93972.69;;;18.18;100.00
12775;BME280;6451;42.630;23.382;2023-05-16T02:35:23;93986.50;;;18.59;100.00
12775;BME280;6451;42.630;23.382;2023-05-16T02:37:50;93977.13;;;18.53;100.00
12775;BME280;6451;42.630;23.382;2023-05-16T02:40:17;93961.38;;;18.09;100.00
12775;BME280;6451;42.630;23.382;2023-05-16T02:42:44;93977.28;;;18.35;100.00
12775;BME280;6451;42.630;23.382;2023-05-16T02:45:13;93963.50;;;18.39;100.00
12775;BME280;6451;42.630;23.382;2023-05-16T02:47:40;93958.34;;;18.44;100.00
12775;BME280;6451;42.630;23.382;2023-05-16T02:50:09;93961.28;;;18.23;100.00
12775;BME280;6451;42.630;23.382;2023-05-16T02:52:36;93956.94;;;18.25;100.00
12775;BME280;6451;42.630;23.382;2023-05-16T02:55:03;93948.81;;;18.11;100.00
12775;BME280;6451;42.630;23.382;2023-05-16T02:57:31;93972.63;;;18.28;100.00
12775;BME280;6451;42.630;23.382;2023-05-16T02:59:58;93911.16;;;18.12;100.00
12775;BME280;6451;42.630;23.382;2023-05-16T03:02:25;93965.56;;;18.76;100.00
12775;BME280;6451;42.630;23.382;2023-05-16T03:04:51;93904.78;;;18.25;100.00
12775;BME280;6451;42.630;23.382;2023-05-16T03:07:20;93969.88;;;18.77;100.00
12775;BME280;6451;42.630;23.382;2023-05-16T03:09:48;93970.38;;;18.61;100.00
12775;BME280;6451;42.630;23.382;2023-05-16T03:12:16;93954.31;;;18.59;100.00
12775;BME280;6451;42.630;23.382;2023-05-16T03:14:42;93926.88;;;18.08;100.00
12775;BME280;6451;42.630;23.382;2023-05-16T03:17:10;93928.88;;;18.03;100.00
12775;BME280;6451;42.630;23.382;2023-05-16T03:19:36;93973.59;;;18.52;100.00
12775;BME280;6451;42.630;23.382;2023-05-16T03:22:03;93978.00;;;18.43;100.00
12775;BME280;6451;42.630;23.382;2023-05-16T03:24:32;93970.28;;;18.23;100.00
12775;BME280;6451;42.630;23.382;2023-05-16T03:26:59;93983.56;;;18.36;100.00
12775;BME280;6451;42.630;23.382;2023-05-16T03:29:29;93920.31;;;17.91;100.00
12775;BME280;6451;42.630;23.382;2023-05-16T03:31:56;93963.47;;;18.42;100.00
12775;BME280;6451;42.630;23.382;2023-05-16T03:34:23;93969.00;;;18.39;100.00
12775;BME280;6451;42.630;23.382;2023-05-16T03:36:51;93933.00;;;18.26;100.00
12775;BME280;6451;42.630;23.382;2023-05-16T03:39:19;93975.50;;;18.07;100.00
12775;BME280;6451;42.630;23.382;2023-05-16T03:41:49;93968.34;;;18.20;100.00
12775;BME280;6451;42.630;23.382;2023-05-16T03:44:16;93968.22;;;18.38;100.00
12775;BME280;6451;42.630;23.382;2023-05-16T03:46:43;93959.22;;;18.34;100.00
12775;BME280;6451;42.630;23.382;2023-05-16T03:49:10;93963.25;;;18.71;100.00
12775;BME280;6451;42.630;23.382;2023-05-16T03:51:37;93971.50;;;18.71;100.00
12775;BME280;6451;42.630;23.382;2023-05-16T03:54:04;93970.56;;;18.84;100.00
12775;BME280;6451;42.630;23.382;2023-05-16T03:56:31;93963.25;;;18.71;100.00
12775;BME280;6451;42.630;23.382;2023-05-16T03:58:59;93970.13;;;18.45;100.00
12775;BME280;6451;42.630;23.382;2023-05-16T04:01:26;93972.84;;;18.48;100.00
12775;BME280;6451;42.630;23.382;2023-05-16T04:03:54;93970.31;;;18.20;100.00
12775;BME280;6451;42.630;23.382;2023-05-16T04:06:24;93968.19;;;18.42;100.00
12775;BME280;6451;42.630;23.382;2023-05-16T04:08:51;93978.16;;;18.73;100.00
12775;BME280;6451;42.630;23.382;2023-05-16T04:11:17;93970.13;;;18.45;100.00
12775;BME280;6451;42.630;23.382;2023-05-16T04:13:45;93967.38;;;18.48;100.00
12775;BME280;6451;42.630;23.382;2023-05-16T04:16:14;93973.88;;;18.65;100.00
12775;BME280;6451;42.630;23.382;2023-05-16T04:18:40;93981.47;;;18.47;100.00
12775;BME280;6451;42.630;23.382;2023-05-16T04:21:07;93987.28;;;18.59;100.00
12775;BME280;6451;42.630;23.382;2023-05-16T04:23:39;93990.38;;;18.65;100.00
12775;BME280;6451;42.630;23.382;2023-05-16T04:26:06;93984.66;;;18.90;100.00
12775;BME280;6451;42.630;23.382;2023-05-16T04:28:33;93978.75;;;18.92;100.00
12775;BME280;6451;42.630;23.382;2023-05-16T04:31:00;93952.97;;;18.78;100.00
12775;BME280;6451;42.630;23.382;2023-05-16T04:33:29;93972.28;;;19.09;100.00
12775;BME280;6451;42.630;23.382;2023-05-16T04:35:55;93962.53;;;19.04;100.00
12775;BME280;6451;42.630;23.382;2023-05-16T04:38:23;93957.69;;;19.15;100.00
12775;BME280;6451;42.630;23.382;2023-05-16T04:40:50;93955.78;;;19.09;100.00
12775;BME280;6451;42.630;23.382;2023-05-16T04:43:17;93966.91;;;18.98;100.00
12775;BME280;6451;42.630;23.382;2023-05-16T04:45:44;93936.16;;;18.73;100.00
12775;BME280;6451;42.630;23.382;2023-05-16T04:48:12;93964.59;;;18.93;100.00
12775;BME280;6451;42.630;23.382;2023-05-16T04:50:41;93951.53;;;19.04;100.00
12775;BME280;6451;42.630;23.382;2023-05-16T04:53:08;93955.41;;;19.07;100.00
12775;BME280;6451;42.630;23.382;2023-05-16T04:55:34;93969.88;;;19.49;100.00
12775;BME280;6451;42.630;23.382;2023-05-16T04:58:01;93954.28;;;19.38;100.00
12775;BME280;6451;42.630;23.382;2023-05-16T05:00:28;93964.34;;;19.18;100.00
12775;BME280;6451;42.630;23.382;2023-05-16T05:02:55;93960.31;;;19.26;100.00
12775;BME280;6451;42.630;23.382;2023-05-16T05:05:22;93965.53;;;19.17;100.00
12775;BME280;6451;42.630;23.382;2023-05-16T05:07:51;93957.53;;;18.96;100.00
12775;BME280;6451;42.630;23.382;2023-05-16T05:10:18;93964.28;;;19.22;100.00
12775;BME280;6451;42.630;23.382;2023-05-16T05:12:45;93978.81;;;19.26;100.00
12775;BME280;6451;42.630;23.382;2023-05-16T05:15:12;93983.31;;;19.43;100.00
12775;BME280;6451;42.630;23.382;2023-05-16T05:17:39;93980.03;;;19.55;100.00
12775;BME280;6451;42.630;23.382;2023-05-16T05:20:07;93978.44;;;19.88;100.00
12775;BME280;6451;42.630;23.382;2023-05-16T05:22:35;93961.22;;;19.16;100.00
12775;BME280;6451;42.630;23.382;2023-05-16T05:25:03;93978.19;;;19.07;100.00
12775;BME280;6451;42.630;23.382;2023-05-16T05:27:31;93964.84;;;19.09;100.00
12775;BME280;6451;42.630;23.382;2023-05-16T05:29:57;93962.13;;;19.06;100.00
12775;BME280;6451;42.630;23.382;2023-05-16T05:32:24;93963.59;;;19.48;100.00
12775;BME280;6451;42.630;23.382;2023-05-16T05:34:51;93955.41;;;19.07;100.00
12775;BME280;6451;42.630;23.382;2023-05-16T05:37:18;93961.44;;;19.32;100.00
12775;BME280;6451;42.630;23.382;2023-05-16T05:39:45;93963.50;;;19.25;100.00
12775;BME280;6451;42.630;23.382;2023-05-16T05:42:14;93951.81;;;19.13;100.00
12775;BME280;6451;42.630;23.382;2023-05-16T05:44:43;93960.09;;;19.44;100.00
12775;BME280;6451;42.630;23.382;2023-05-16T05:47:09;93959.25;;;19.51;100.00
12775;BME280;6451;42.630;23.382;2023-05-16T05:49:36;93950.31;;;19.39;100.00
12775;BME280;6451;42.630;23.382;2023-05-16T05:52:04;93951.25;;;19.29;100.00
12775;BME280;6451;42.630;23.382;2023-05-16T05:54:31;93944.38;;;19.44;100.00
12775;BME280;6451;42.630;23.382;2023-05-16T05:56:58;93947.00;;;19.55;100.00
12775;BME280;6451;42.630;23.382;2023-05-16T05:59:27;93947.84;;;19.83;100.00
12775;BME280;6451;42.630;23.382;2023-05-16T06:01:54;93947.63;;;19.97;100.00
12775;BME280;6451;42.630;23.382;2023-05-16T06:04:21;93951.59;;;19.96;100.00
12775;BME280;6451;42.630;23.382;2023-05-16T06:06:48;93949.19;;;19.71;100.00
12775;BME280;6451;42.630;23.382;2023-05-16T06:09:15;93956.00;;;19.90;100.00
12775;BME280;6451;42.630;23.382;2023-05-16T06:11:42;93955.06;;;19.73;100.00
12775;BME280;6451;42.630;23.382;2023-05-16T06:14:10;93956.50;;;19.47;100.00
12775;BME280;6451;42.630;23.382;2023-05-16T06:16:41;93946.28;;;19.82;100.00
12775;BME280;6451;42.630;23.382;2023-05-16T06:19:08;93951.66;;;20.16;100.00
12775;BME280;6451;42.630;23.382;2023-05-16T06:21:36;93953.34;;;20.10;100.00
12775;BME280;6451;42.630;23.382;2023-05-16T06:24:04;93964.06;;;20.04;100.00
12775;BME280;6451;42.630;23.382;2023-05-16T06:29:06;93963.31;;;19.73;100.00
12775;BME280;6451;42.630;23.382;2023-05-16T06:31:33;93965.72;;;19.98;100.00
12775;BME280;6451;42.630;23.382;2023-05-16T06:34:01;93956.34;;;19.92;100.00
12775;BME280;6451;42.630;23.382;2023-05-16T06:36:28;93945.19;;;19.76;100.00
12775;BME280;6451;42.630;23.382;2023-05-16T06:38:55;93940.81;;;19.78;100.00
12775;BME280;6451;42.630;23.382;2023-05-16T06:41:22;93964.41;;;19.79;100.00
12775;BME280;6451;42.630;23.382;2023-05-16T06:43:49;93942.47;;;19.72;100.00
12775;BME280;6451;42.630;23.382;2023-05-16T06:46:16;93946.13;;;19.62;100.00
12775;BME280;6451;42.630;23.382;2023-05-16T06:48:43;93941.47;;;19.86;100.00
12775;BME280;6451;42.630;23.382;2023-05-16T06:51:12;93952.47;;;19.89;100.00
12775;BME280;6451;42.630;23.382;2023-05-16T06:53:39;93916.31;;;19.87;100.00
12775;BME280;6451;42.630;23.382;2023-05-16T06:56:06;93927.41;;;20.81;100.00
12775;BME280;6451;42.630;23.382;2023-05-16T06:58:33;93936.09;;;20.06;100.00
12775;BME280;6451;42.630;23.382;2023-05-16T07:01:00;93920.94;;;19.94;100.00
12775;BME280;6451;42.630;23.382;2023-05-16T07:03:27;93937.97;;;20.12;100.00
12775;BME280;6451;42.630;23.382;2023-05-16T07:05:54;93939.53;;;19.86;100.00
12775;BME280;6451;42.630;23.382;2023-05-16T07:08:23;93920.00;;;20.04;100.00
12775;BME280;6451;42.630;23.382;2023-05-16T07:10:50;93917.88;;;19.88;100.00
12775;BME280;6451;42.630;23.382;2023-05-16T07:13:17;93920.59;;;19.61;100.00
12775;BME280;6451;42.630;23.382;2023-05-16T07:15:44;93938.94;;;19.98;100.00
12775;BME280;6451;42.630;23.382;2023-05-16T07:18:11;93916.66;;;19.89;100.00
12775;BME280;6451;42.630;23.382;2023-05-16T07:20:38;93906.09;;;19.84;100.00
12775;BME280;6451;42.630;23.382;2023-05-16T07:23:05;93898.28;;;19.52;100.00
12775;BME280;6451;42.630;23.382;2023-05-16T07:25:33;93894.28;;;19.87;100.00
12775;BME280;6451;42.630;23.382;2023-05-16T07:28:00;93903.13;;;20.25;100.00
12775;BME280;6451;42.630;23.382;2023-05-16T07:30:27;93900.72;;;20.04;100.00
12775;BME280;6451;42.630;23.382;2023-05-16T07:32:55;93851.00;;;20.11;100.00
12775;BME280;6451;42.630;23.382;2023-05-16T07:35:22;93902.72;;;20.00;100.00
12775;BME280;6451;42.630;23.382;2023-05-16T07:37:49;93897.53;;;20.56;100.00
12775;BME280;6451;42.630;23.382;2023-05-16T07:40:16;93898.06;;;20.47;100.00
12775;BME280;6451;42.630;23.382;2023-05-16T07:42:47;93918.38;;;20.30;100.00
12775;BME280;6451;42.630;23.382;2023-05-16T07:45:14;93921.09;;;20.34;100.00
12775;BME280;6451;42.630;23.382;2023-05-16T07:47:41;93923.47;;;20.59;100.00
12775;BME280;6451;42.630;23.382;2023-05-16T07:50:09;93878.44;;;20.18;100.00
12775;BME280;6451;42.630;23.382;2023-05-16T07:52:36;93910.25;;;20.23;100.00
12775;BME280;6451;42.630;23.382;2023-05-16T07:55:04;93914.47;;;20.54;100.00
12775;BME280;6451;42.630;23.382;2023-05-16T07:57:31;93902.91;;;20.40;100.00
12775;BME280;6451;42.630;23.382;2023-05-16T07:59:59;93897.50;;;20.99;100.00
12775;BME280;6451;42.630;23.382;2023-05-16T08:02:26;93911.88;;;21.70;100.00
12775;BME280;6451;42.630;23.382;2023-05-16T08:04:55;93912.56;;;21.15;100.00
12775;BME280;6451;42.630;23.382;2023-05-16T08:07:23;93904.53;;;21.63;100.00
12775;BME280;6451;42.630;23.382;2023-05-16T08:09:50;93895.72;;;21.69;100.00
12775;BME280;6451;42.630;23.382;2023-05-16T08:12:17;93867.31;;;21.68;100.00
12775;BME280;6451;42.630;23.382;2023-05-16T08:14:44;93876.59;;;21.78;100.00
12775;BME280;6451;42.630;23.382;2023-05-16T08:17:12;93874.53;;;21.98;100.00
12775;BME280;6451;42.630;23.382;2023-05-16T08:19:39;93879.88;;;22.05;100.00
12775;BME280;6451;42.630;23.382;2023-05-16T08:22:08;93859.31;;;21.90;100.00
12775;BME280;6451;42.630;23.382;2023-05-16T08:24:34;93878.09;;;22.31;100.00
12775;BME280;6451;42.630;23.382;2023-05-16T08:27:01;93871.28;;;22.19;100.00
12775;BME280;6451;42.630;23.382;2023-05-16T08:29:28;93887.75;;;22.07;100.00
12775;BME280;6451;42.630;23.382;2023-05-16T08:31:57;93866.63;;;21.64;100.00
12775;BME280;6451;42.630;23.382;2023-05-16T08:34:25;93878.66;;;21.74;100.00
12775;BME280;6451;42.630;23.382;2023-05-16T08:36:52;93887.03;;;21.70;100.00
12775;BME280;6451;42.630;23.382;2023-05-16T08:39:20;93892.09;;;21.72;100.00
12775;BME280;6451;42.630;23.382;2023-05-16T08:41:47;93873.53;;;22.08;100.00
12775;BME280;6451;42.630;23.382;2023-05-16T08:44:14;93885.81;;;22.40;100.00
12775;BME280;6451;42.630;23.382;2023-05-16T08:46:49;93879.47;;;22.56;100.00
12775;BME280;6451;42.630;23.382;2023-05-16T08:49:17;93889.78;;;22.55;100.00
12775;BME280;6451;42.630;23.382;2023-05-16T08:51:47;93876.84;;;22.81;99.74
12775;BME280;6451;42.630;23.382;2023-05-16T08:54:15;93877.16;;;22.83;99.64
12775;BME280;6451;42.630;23.382;2023-05-16T08:56:43;93883.25;;;23.07;97.08
12775;BME280;6451;42.630;23.382;2023-05-16T08:59:11;93883.31;;;22.74;97.31
12775;BME280;6451;42.630;23.382;2023-05-16T09:01:40;93829.63;;;22.43;96.41
12775;BME280;6451;42.630;23.382;2023-05-16T09:04:08;93864.50;;;22.86;95.45
12775;BME280;6451;42.630;23.382;2023-05-16T09:06:35;93845.16;;;23.40;94.29
12775;BME280;6451;42.630;23.382;2023-05-16T09:09:04;93856.22;;;23.27;94.39
12775;BME280;6451;42.630;23.382;2023-05-16T09:11:33;93870.94;;;23.24;95.15
12775;BME280;6451;42.630;23.382;2023-05-16T09:14:01;93860.03;;;23.46;94.00
12775;BME280;6451;42.630;23.382;2023-05-16T09:16:28;93865.31;;;23.41;94.48
12775;BME280;6451;42.630;23.382;2023-05-16T09:18:57;93854.88;;;22.74;95.87
12775;BME280;6451;42.630;23.382;2023-05-16T09:21:27;93863.59;;;23.18;94.58
12775;BME280;6451;42.630;23.382;2023-05-16T09:23:54;93865.28;;;23.28;93.99
12775;BME280;6451;42.630;23.382;2023-05-16T09:26:22;93871.34;;;23.10;95.16
12775;BME280;6451;42.630;23.382;2023-05-16T09:28:52;93864.19;;;22.96;94.80
12775;BME280;6451;42.630;23.382;2023-05-16T09:31:21;93872.38;;;23.00;96.04
12775;BME280;6451;42.630;23.382;2023-05-16T09:33:49;93878.09;;;22.64;95.79
12775;BME280;6451;42.630;23.382;2023-05-16T09:36:16;93869.41;;;22.78;95.42
12775;BME280;6451;42.630;23.382;2023-05-16T09:38:43;93881.38;;;22.59;95.91
12775;BME280;6451;42.630;23.382;2023-05-16T09:41:11;93881.09;;;22.86;95.25
12775;BME280;6451;42.630;23.382;2023-05-16T09:43:41;93886.78;;;22.95;96.27
12775;BME280;6451;42.630;23.382;2023-05-16T09:46:11;93868.19;;;22.79;96.62
12775;BME280;6451;42.630;23.382;2023-05-16T09:48:40;93882.69;;;22.83;96.19
12775;BME280;6451;42.630;23.382;2023-05-16T09:51:07;93875.94;;;22.39;98.24
12775;BME280;6451;42.630;23.382;2023-05-16T09:53:34;93872.94;;;22.95;96.60
12775;BME280;6451;42.630;23.382;2023-05-16T09:56:05;93881.44;;;23.17;97.23
12775;BME280;6451;42.630;23.382;2023-05-16T09:58:33;93870.06;;;23.27;96.45
12775;BME280;6451;42.630;23.382;2023-05-16T10:01:02;93871.28;;;23.26;95.99
12775;BME280;6451;42.630;23.382;2023-05-16T10:03:34;93870.28;;;23.33;96.74
12775;BME280;6451;42.630;23.382;2023-05-16T10:06:02;93864.94;;;23.68;95.59
12775;BME280;6451;42.630;23.382;2023-05-16T10:08:32;93866.84;;;23.71;95.53
12775;BME280;6451;42.630;23.382;2023-05-16T10:11:02;93861.66;;;23.85;92.36
12775;BME280;6451;42.630;23.382;2023-05-16T10:13:31;93869.16;;;23.72;91.76
12775;BME280;6451;42.630;23.382;2023-05-16T10:15:59;93866.06;;;24.08;90.78
12775;BME280;6451;42.630;23.382;2023-05-16T10:18:30;93857.13;;;23.50;92.82
12775;BME280;6451;42.630;23.382;2023-05-16T10:21:03;93859.19;;;23.88;91.09
12775;BME280;6451;42.630;23.382;2023-05-16T10:23:32;93859.63;;;23.99;93.74
12775;BME280;6451;42.630;23.382;2023-05-16T10:26:02;93853.53;;;24.17;93.02
12775;BME280;6451;42.630;23.382;2023-05-16T10:28:30;93847.84;;;24.20;92.13
12775;BME280;6451;42.630;23.382;2023-05-16T10:30:58;93830.34;;;24.36;91.04
12775;BME280;6451;42.630;23.382;2023-05-16T10:33:28;93849.94;;;24.89;90.05
12775;BME280;6451;42.630;23.382;2023-05-16T10:35:56;93837.22;;;24.31;90.62
12775;BME280;6451;42.630;23.382;2023-05-16T10:38:30;93845.56;;;23.80;91.01
12775;BME280;6451;42.630;23.382;2023-05-16T10:40:57;93829.59;;;23.72;90.48
12775;BME280;6451;42.630;23.382;2023-05-16T10:43:27;93827.38;;;23.79;90.66
12775;BME280;6451;42.630;23.382;2023-05-16T10:45:55;93802.78;;;23.94;91.50
12775;BME280;6451;42.630;23.382;2023-05-16T10:48:34;93779.06;;;23.55;92.86
12775;BME280;6451;42.630;23.382;2023-05-16T10:51:03;93812.81;;;24.26;91.91
12775;BME280;6451;42.630;23.382;2023-05-16T10:53:46;93803.88;;;24.57;89.93
12775;BME280;6451;42.630;23.382;2023-05-16T10:56:12;93817.66;;;24.48;89.97
12775;BME280;6451;42.630;23.382;2023-05-16T10:58:41;93795.31;;;24.64;88.53
12775;BME280;6451;42.630;23.382;2023-05-16T11:01:18;93760.59;;;24.59;88.14
12775;BME280;6451;42.630;23.382;2023-05-16T11:04:09;93805.56;;;24.98;87.08
12775;BME280;6451;42.630;23.382;2023-05-16T11:06:44;93807.78;;;24.81;85.21
12775;BME280;6451;42.630;23.382;2023-05-16T11:09:20;93809.78;;;25.03;85.64
12775;BME280;6451;42.630;23.382;2023-05-16T11:11:57;93787.09;;;25.48;83.83
12775;BME280;6451;42.630;23.382;2023-05-16T11:14:26;93815.38;;;25.77;81.25
12775;BME280;6451;42.630;23.382;2023-05-16T11:17:00;93808.19;;;24.92;86.45
12775;BME280;6451;42.630;23.382;2023-05-16T11:19:31;93808.19;;;25.14;85.68
12775;BME280;6451;42.630;23.382;2023-05-16T11:22:11;93823.75;;;24.55;87.14
12775;BME280;6451;42.630;23.382;2023-05-16T11:24:49;93803.25;;;24.27;88.06
12775;BME280;6451;42.630;23.382;2023-05-16T11:27:21;93819.44;;;24.29;87.99
12775;BME280;6451;42.630;23.382;2023-05-16T11:29:49;93822.13;;;24.20;88.65
12775;BME280;6451;42.630;23.382;2023-05-16T11:32:19;93813.94;;;24.16;89.16
12775;BME280;6451;42.630;23.382;2023-05-16T11:34:48;93806.50;;;24.60;88.12
12775;BME280;6451;42.630;23.382;2023-05-16T11:37:15;93810.91;;;24.49;87.96
12775;BME280;6451;42.630;23.382;2023-05-16T11:39:44;93808.44;;;24.51;89.24
12775;BME280;6451;42.630;23.382;2023-05-16T11:42:11;93811.22;;;25.60;86.74
12775;BME280;6451;42.630;23.382;2023-05-16T11:44:38;93814.34;;;25.93;84.31
12775;BME280;6451;42.630;23.382;2023-05-16T11:47:05;93813.56;;;25.62;84.63
12775;BME280;6451;42.630;23.382;2023-05-16T11:49:33;93798.22;;;25.48;83.52
12775;BME280;6451;42.630;23.382;2023-05-16T11:52:03;93809.91;;;25.43;84.62
12775;BME280;6451;42.630;23.382;2023-05-16T11:54:30;93803.91;;;25.75;81.74
12775;BME280;6451;42.630;23.382;2023-05-16T11:57:00;93816.88;;;26.19;81.21
12775;BME280;6451;42.630;23.382;2023-05-16T11:59:27;93785.00;;;25.61;82.51
12775;BME280;6451;42.630;23.382;2023-05-16T12:01:55;93806.25;;;26.36;81.87
12775;BME280;6451;42.630;23.382;2023-05-16T12:04:23;93797.38;;;27.23;78.37
12775;BME280;6451;42.630;23.382;2023-05-16T12:06:58;93789.16;;;26.65;80.04
12775;BME280;6451;42.630;23.382;2023-05-16T12:09:27;93782.06;;;27.09;79.30
12775;BME280;6451;42.630;23.382;2023-05-16T12:11:54;93772.16;;;26.63;78.08
12775;BME280;6451;42.630;23.382;2023-05-16T12:14:22;93772.56;;;27.86;75.24
12775;BME280;6451;42.630;23.382;2023-05-16T12:16:51;93783.72;;;27.86;73.85
12775;BME280;6451;42.630;23.382;2023-05-16T12:19:19;93783.00;;;27.67;73.24
12775;BME280;6451;42.630;23.382;2023-05-16T12:21:46;93786.63;;;27.49;74.06
12775;BME280;6451;42.630;23.382;2023-05-16T12:24:13;93768.50;;;27.54;72.59
12775;BME280;6451;42.630;23.382;2023-05-16T12:26:42;93778.06;;;28.04;69.69
12775;BME280;6451;42.630;23.382;2023-05-16T12:29:09;93755.16;;;28.24;69.40
12775;BME280;6451;42.630;23.382;2023-05-16T12:31:38;93761.47;;;27.77;70.40
12775;BME280;6451;42.630;23.382;2023-05-16T12:34:14;93757.97;;;27.49;72.23
12775;BME280;6451;42.630;23.382;2023-05-16T12:36:41;93766.72;;;27.14;72.59
12775;BME280;6451;42.630;23.382;2023-05-16T12:39:11;93768.13;;;26.54;74.35
12775;BME280;6451;42.630;23.382;2023-05-16T12:41:40;93780.06;;;25.96;74.48
12775;BME280;6451;42.630;23.382;2023-05-16T12:44:11;93764.25;;;25.53;75.65
12775;BME280;6451;42.630;23.382;2023-05-16T12:46:42;93762.88;;;25.80;75.46
12775;BME280;6451;42.630;23.382;2023-05-16T12:49:09;93765.28;;;25.37;76.40
12775;BME280;6451;42.630;23.382;2023-05-16T12:51:36;93756.66;;;25.13;76.33
12775;BME280;6451;42.630;23.382;2023-05-16T12:56:38;93772.97;;;25.33;75.86
12775;BME280;6451;42.630;23.382;2023-05-16T12:59:05;93781.47;;;25.08;76.30
12775;BME280;6451;42.630;23.382;2023-05-16T13:01:34;93779.03;;;25.10;77.71
12775;BME280;6451;42.630;23.382;2023-05-16T13:04:01;93779.25;;;25.03;80.61